Time;durP1;ratioP1;P1;durP2;ratioP2;P2;SDS_P1;SDS_P2;PMS_P1;PMS_P2;Temp;Humidity;BMP_temperature;BMP_pressure;BME280_temperature;BME280_humidity;BME280_pressure;Samples;Min_cycle;Max_cycle;Signal;HPM_P1;HPM_P2
2021/04/29 00:01:47;;;;;;;4.50;3.20;;;14.40;65.90;;;;;;5093868;28;20400;-48
2021/04/29 00:04:13;;;;;;;3.55;2.95;;;14.40;65.90;;;;;;5093758;28;20056;-44
2021/04/29 00:06:38;;;;;;;3.33;2.83;;;14.40;65.90;;;;;;5093520;28;20044;-45
2021/04/29 00:09:05;;;;;;;4.20;2.50;;;14.40;65.90;;;;;;5093671;28;20544;-47
2021/04/29 00:11:32;;;;;;;3.88;3.03;;;14.40;65.90;;;;;;5093735;28;20040;-46
2021/04/29 00:13:58;;;;;;;3.30;2.80;;;14.40;65.90;;;;;;5093750;28;20051;-49
2021/04/29 00:16:23;;;;;;;4.88;2.90;;;14.40;65.90;;;;;;5092995;28;20036;-47
2021/04/29 00:18:49;;;;;;;4.55;2.97;;;14.40;65.90;;;;;;5093146;28;20055;-46
2021/04/29 00:21:15;;;;;;;3.08;2.75;;;14.40;65.90;;;;;;5093494;28;20070;-48
2021/04/29 00:23:41;;;;;;;3.78;2.70;;;14.40;65.90;;;;;;5093376;28;20047;-46
2021/04/29 00:26:07;;;;;;;5.50;3.20;;;14.40;65.90;;;;;;5093221;28;20549;-43
2021/04/29 00:28:32;;;;;;;3.80;3.00;;;14.40;65.90;;;;;;5093078;28;20056;-45
2021/04/29 00:30:58;;;;;;;4.32;3.28;;;14.40;65.90;;;;;;5093087;28;20109;-42
2021/04/29 00:33:24;;;;;;;3.05;2.42;;;14.40;66.00;;;;;;5093213;28;20514;-47
2021/04/29 00:35:50;;;;;;;3.38;2.90;;;14.40;66.00;;;;;;5093251;28;20127;-46
2021/04/29 00:38:16;;;;;;;4.43;3.22;;;14.40;66.00;;;;;;5092829;28;20143;-44
2021/04/29 00:40:42;;;;;;;4.25;2.85;;;14.40;66.00;;;;;;5092997;28;20040;-43
2021/04/29 00:43:12;;;;;;;3.88;2.70;;;14.40;66.00;;;;;;5093320;28;20062;-49
2021/04/29 00:45:39;;;;;;;4.00;3.60;;;14.40;66.00;;;;;;5093216;28;20565;-47
2021/04/29 00:48:05;;;;;;;3.53;2.83;;;14.40;66.00;;;;;;5092551;28;20716;-42
2021/04/29 00:50:31;;;;;;;4.38;3.22;;;14.40;66.10;;;;;;5093040;28;20044;-47
2021/04/29 00:52:57;;;;;;;3.40;3.00;;;14.40;66.10;;;;;;5092758;28;20065;-46
2021/04/29 00:55:23;;;;;;;4.18;3.00;;;14.30;66.10;;;;;;5093149;28;20044;-46
2021/04/29 00:57:49;;;;;;;4.40;3.17;;;14.40;66.10;;;;;;5093114;28;20040;-46
2021/04/29 01:00:16;;;;;;;4.00;3.10;;;14.40;66.10;;;;;;5092855;28;20044;-45
2021/04/29 01:02:48;;;;;;;4.15;3.20;;;14.40;66.10;;;;;;5092732;28;20055;-45
2021/04/29 01:05:37;;;;;;;3.90;3.10;;;14.40;66.10;;;;;;5093108;28;20400;-44
2021/04/29 01:08:16;;;;;;;4.00;3.25;;;14.40;66.20;;;;;;5092729;28;20087;-45
2021/04/29 01:10:55;;;;;;;4.18;3.05;;;14.40;66.80;;;;;;5092578;28;20506;-46
2021/04/29 01:13:26;;;;;;;4.95;2.95;;;14.40;66.20;;;;;;5091369;28;20048;-43
2021/04/29 01:15:53;;;;;;;4.53;2.75;;;14.40;66.20;;;;;;5091820;28;20048;-48
2021/04/29 01:18:23;;;;;;;4.88;3.22;;;14.40;66.20;;;;;;5092497;28;20048;-48
2021/04/29 01:21:11;;;;;;;4.13;3.03;;;14.40;66.20;;;;;;5092563;28;20040;-49
2021/04/29 01:23:57;;;;;;;4.13;3.35;;;14.40;66.20;;;;;;5092349;28;20093;-48
2021/04/29 01:26:26;;;;;;;4.43;3.70;;;14.40;66.20;;;;;;5092849;28;20055;-47
2021/04/29 01:28:53;;;;;;;5.70;3.20;;;14.40;66.20;;;;;;5092813;28;20044;-40
2021/04/29 01:31:22;;;;;;;3.75;2.72;;;14.30;66.20;;;;;;5092499;28;20503;-44
2021/04/29 01:33:49;;;;;;;4.10;3.15;;;14.40;66.20;;;;;;5091253;28;20078;-46
2021/04/29 01:36:15;;;;;;;4.15;3.22;;;14.40;66.30;;;;;;5092710;28;20135;-46
2021/04/29 01:38:41;;;;;;;4.55;2.90;;;14.40;66.20;;;;;;5092698;28;20044;-45
2021/04/29 01:41:07;;;;;;;4.68;3.30;;;14.40;66.30;;;;;;5092305;28;20110;-45
2021/04/29 01:43:34;;;;;;;5.72;3.42;;;14.30;66.20;;;;;;5094155;28;20054;-41
2021/04/29 01:46:01;;;;;;;4.22;3.00;;;14.30;66.20;;;;;;5096470;28;20482;-46
2021/04/29 01:48:28;;;;;;;3.95;3.30;;;14.30;66.30;;;;;;5096312;28;20396;-41
2021/04/29 01:50:54;;;;;;;4.35;3.30;;;14.30;66.30;;;;;;5096466;28;20048;-46
2021/04/29 01:53:20;;;;;;;5.22;3.55;;;14.40;66.30;;;;;;5096040;28;20109;-48
2021/04/29 01:55:47;;;;;;;4.10;3.22;;;14.30;66.30;;;;;;5096497;28;20052;-46
2021/04/29 01:58:13;;;;;;;4.63;3.03;;;14.30;66.30;;;;;;5095940;28;20070;-43
2021/04/29 02:00:39;;;;;;;4.43;3.13;;;14.30;66.30;;;;;;5096277;28;20480;-48
2021/04/29 02:03:04;;;;;;;4.18;2.83;;;14.30;66.30;;;;;;5095991;28;20052;-45
2021/04/29 02:05:30;;;;;;;3.25;2.83;;;14.30;66.30;;;;;;5095968;28;20048;-48
2021/04/29 02:07:57;;;;;;;3.97;2.97;;;14.30;66.30;;;;;;5096337;28;20052;-46
2021/04/29 02:10:23;;;;;;;3.70;3.13;;;14.30;66.30;;;;;;5096158;28;20051;-43
2021/04/29 02:12:53;;;;;;;4.38;3.28;;;14.30;66.40;;;;;;5096002;28;20108;-45
2021/04/29 02:15:22;;;;;;;3.88;3.28;;;14.30;66.30;;;;;;5075693;28;20113;-42
2021/04/29 02:17:59;;;;;;;4.25;3.17;;;14.30;66.30;;;;;;5075750;28;20432;-41
2021/04/29 02:20:26;;;;;;;3.35;3.05;;;14.30;66.40;;;;;;5075368;28;20115;-48
2021/04/29 02:22:53;;;;;;;4.30;2.95;;;14.30;66.40;;;;;;5075545;28;20051;-46
2021/04/29 02:25:25;;;;;;;3.65;3.20;;;14.30;66.40;;;;;;5092236;28;20404;-46
2021/04/29 02:27:51;;;;;;;4.75;3.17;;;14.30;66.40;;;;;;5095633;28;20048;-45
2021/04/29 02:30:18;;;;;;;4.22;3.22;;;14.30;66.40;;;;;;5096030;28;20048;-47
2021/04/29 02:32:44;;;;;;;3.70;3.30;;;14.30;67.00;;;;;;5095793;28;20055;-46
2021/04/29 02:35:13;;;;;;;4.57;3.15;;;14.30;66.40;;;;;;5095229;28;20496;-46
2021/04/29 02:37:42;;;;;;;3.50;2.80;;;14.30;66.40;;;;;;5095630;28;20079;-45
2021/04/29 02:40:10;;;;;;;4.43;3.13;;;14.20;66.40;;;;;;5095538;28;20051;-43
2021/04/29 02:42:38;;;;;;;3.90;3.10;;;14.30;66.50;;;;;;5095475;28;20491;-48
2021/04/29 02:45:10;;;;;;;3.90;3.50;;;14.40;66.50;;;;;;5095363;28;20082;-48
2021/04/29 02:47:40;;;;;;;4.40;3.40;;;14.30;66.40;;;;;;5095519;28;20052;-43
2021/04/29 02:50:10;;;;;;;4.32;2.97;;;14.30;66.50;;;;;;5095398;28;20097;-44
2021/04/29 02:52:38;;;;;;;4.93;2.92;;;14.30;66.50;;;;;;5094776;28;20052;-44
2021/04/29 02:55:05;;;;;;;3.17;2.88;;;14.30;66.50;;;;;;5094002;28;20051;-46
2021/04/29 02:57:31;;;;;;;4.78;3.25;;;14.30;66.50;;;;;;5094838;28;20047;-45
2021/04/29 02:59:57;;;;;;;4.40;3.10;;;14.30;66.50;;;;;;5095139;28;20462;-45
2021/04/29 03:02:23;;;;;;;4.47;3.25;;;14.30;66.50;;;;;;5095222;28;20076;-43
2021/04/29 03:04:49;;;;;;;3.58;3.10;;;14.30;66.50;;;;;;5095101;28;20040;-43
2021/04/29 03:07:15;;;;;;;4.20;2.95;;;14.30;66.50;;;;;;5094364;28;20127;-39
2021/04/29 03:09:40;;;;;;;5.05;3.70;;;14.30;66.50;;;;;;5094996;28;20503;-47
2021/04/29 03:12:06;;;;;;;4.50;3.10;;;14.30;66.50;;;;;;5095096;28;20404;-49
2021/04/29 03:14:32;;;;;;;4.10;3.00;;;14.30;66.50;;;;;;5094915;28;20040;-46
2021/04/29 03:16:58;;;;;;;4.38;3.17;;;14.30;66.60;;;;;;5094721;28;20055;-47
2021/04/29 03:19:24;;;;;;;3.67;3.22;;;14.30;66.60;;;;;;5094761;28;20052;-46
2021/04/29 03:21:50;;;;;;;3.97;3.22;;;14.30;66.50;;;;;;5094522;28;20097;-46
2021/04/29 03:24:15;;;;;;;5.32;3.20;;;14.30;67.20;;;;;;5094723;28;20583;-48
2021/04/29 03:26:41;;;;;;;5.13;3.25;;;14.30;66.60;;;;;;5094557;28;20068;-47
2021/04/29 03:29:07;;;;;;;5.75;3.75;;;14.30;66.50;;;;;;5094052;28;20488;-45
2021/04/29 03:31:33;;;;;;;4.43;3.28;;;14.30;66.60;;;;;;5094482;28;20135;-42
2021/04/29 03:33:58;;;;;;;3.47;3.15;;;14.30;66.60;;;;;;5094571;28;20043;-46
2021/04/29 03:36:24;;;;;;;4.30;3.20;;;14.30;67.30;;;;;;5094554;28;20128;-46
2021/04/29 03:38:49;;;;;;;5.60;3.45;;;14.30;66.60;;;;;;5093657;28;20051;-42
2021/04/29 03:41:15;;;;;;;4.45;3.55;;;14.30;66.60;;;;;;5094221;28;20097;-48
2021/04/29 03:43:41;;;;;;;5.38;3.50;;;14.20;66.50;;;;;;5094491;28;20055;-45
2021/04/29 03:46:07;;;;;;;4.78;3.45;;;14.30;66.60;;;;;;5094454;28;20048;-41
2021/04/29 03:48:33;;;;;;;3.83;3.25;;;14.30;66.60;;;;;;5094099;28;20063;-47
2021/04/29 03:50:59;;;;;;;4.68;3.13;;;14.30;66.60;;;;;;5094132;28;20484;-42
2021/04/29 03:53:25;;;;;;;4.88;3.55;;;14.20;66.60;;;;;;5093632;28;20052;-49
2021/04/29 03:55:50;;;;;;;5.63;3.80;;;14.30;66.60;;;;;;5094126;28;20055;-49
2021/04/29 03:58:16;;;;;;;5.30;3.85;;;14.20;66.60;;;;;;5093712;28;20044;-48
2021/04/29 04:00:42;;;;;;;5.03;3.67;;;14.30;66.70;;;;;;5093087;28;20400;-44
2021/04/29 04:03:08;;;;;;;3.85;3.30;;;14.20;66.60;;;;;;5093160;28;20048;-41
2021/04/29 04:05:33;;;;;;;4.70;3.88;;;14.30;66.70;;;;;;5092758;28;20048;-47
2021/04/29 04:07:59;;;;;;;5.53;3.63;;;14.20;66.60;;;;;;5092776;28;20108;-45
2021/04/29 04:10:25;;;;;;;5.00;3.63;;;14.20;66.60;;;;;;5092194;28;20040;-42
2021/04/29 04:12:50;;;;;;;4.70;3.70;;;14.20;66.60;;;;;;5093769;28;20058;-47
2021/04/29 04:15:16;;;;;;;3.97;3.53;;;14.20;66.60;;;;;;5094022;28;20059;-49
2021/04/29 04:17:42;;;;;;;3.90;3.30;;;14.30;66.70;;;;;;5093653;28;20040;-45
2021/04/29 04:20:08;;;;;;;4.63;3.80;;;14.30;66.70;;;;;;5093704;28;20051;-47
2021/04/29 04:22:34;;;;;;;4.68;3.78;;;14.20;66.60;;;;;;5093334;28;20062;-40
2021/04/29 04:24:59;;;;;;;4.18;3.55;;;14.20;66.70;;;;;;5093132;28;20052;-47
2021/04/29 04:27:26;;;;;;;3.92;3.00;;;14.30;66.70;;;;;;5093459;28;20055;-46
2021/04/29 04:29:52;;;;;;;3.67;3.20;;;14.20;66.70;;;;;;5093675;28;20050;-41
2021/04/29 04:32:17;;;;;;;4.20;3.60;;;14.20;66.70;;;;;;5093312;28;20047;-46
2021/04/29 04:34:43;;;;;;;4.97;3.75;;;14.20;66.70;;;;;;5093007;28;20062;-44
2021/04/29 04:37:09;;;;;;;5.18;3.80;;;14.20;66.70;;;;;;5093483;28;20067;-42
2021/04/29 04:39:36;;;;;;;4.20;3.53;;;14.10;66.60;;;;;;5092795;28;20054;-45
2021/04/29 04:42:03;;;;;;;4.18;3.63;;;14.20;66.70;;;;;;5092946;28;20078;-44
2021/04/29 04:44:28;;;;;;;5.35;3.45;;;14.30;66.80;;;;;;5093081;28;20048;-47
2021/04/29 04:46:55;;;;;;;6.10;3.80;;;14.20;66.70;;;;;;5093350;28;20056;-41
2021/04/29 04:49:20;;;;;;;4.35;3.70;;;14.20;66.70;;;;;;5093464;28;20059;-41
2021/04/29 04:51:47;;;;;;;4.53;3.60;;;14.20;66.70;;;;;;5092521;28;20044;-41
2021/04/29 04:54:14;;;;;;;5.13;3.70;;;14.20;66.70;;;;;;5093203;28;20054;-46
2021/04/29 04:56:40;;;;;;;5.22;4.00;;;14.20;66.70;;;;;;5092740;28;20079;-45
2021/04/29 04:59:06;;;;;;;4.70;4.05;;;14.20;66.70;;;;;;5092872;28;20527;-44
2021/04/29 05:01:31;;;;;;;4.53;3.63;;;14.20;66.70;;;;;;5093013;28;20598;-43
2021/04/29 05:03:57;;;;;;;5.38;4.03;;;14.20;66.70;;;;;;5091026;28;20095;-43
2021/04/29 05:06:23;;;;;;;5.30;3.97;;;14.20;66.80;;;;;;5092931;28;20055;-42
2021/04/29 05:08:49;;;;;;;4.18;3.67;;;14.20;66.70;;;;;;5093023;28;20048;-45
2021/04/29 05:11:15;;;;;;;4.03;3.40;;;14.20;66.70;;;;;;5092330;28;20047;-45
2021/04/29 05:13:40;;;;;;;5.45;3.90;;;14.20;66.70;;;;;;5092007;28;20036;-48
2021/04/29 05:16:06;;;;;;;4.75;3.67;;;14.20;66.70;;;;;;5092651;28;20055;-45
2021/04/29 05:18:32;;;;;;;4.70;4.00;;;14.20;66.70;;;;;;5094170;28;20044;-46
2021/04/29 05:20:57;;;;;;;4.63;3.95;;;14.20;66.70;;;;;;5097050;28;20044;-42
2021/04/29 05:23:23;;;;;;;4.55;3.55;;;14.20;66.80;;;;;;5096899;28;20077;-43
2021/04/29 05:25:49;;;;;;;5.38;3.67;;;14.20;66.80;;;;;;5096624;28;20139;-49
2021/04/29 05:28:14;;;;;;;5.15;4.10;;;14.20;66.80;;;;;;5096967;28;20048;-45
2021/04/29 05:30:40;;;;;;;4.10;3.40;;;14.20;66.80;;;;;;5096749;28;20051;-41
2021/04/29 05:33:06;;;;;;;5.30;3.78;;;14.20;66.80;;;;;;5097121;28;20052;-49
2021/04/29 05:35:31;;;;;;;5.55;4.10;;;14.20;66.80;;;;;;5096361;28;20477;-47
2021/04/29 05:37:57;;;;;;;6.10;3.85;;;14.20;66.80;;;;;;5096109;28;20236;-43
2021/04/29 05:40:23;;;;;;;4.40;3.55;;;14.20;66.80;;;;;;5096776;28;20056;-40
2021/04/29 05:42:48;;;;;;;5.18;3.67;;;14.20;66.80;;;;;;5096365;28;20449;-40
2021/04/29 05:45:15;;;;;;;5.07;3.60;;;14.20;66.80;;;;;;5096144;28;20071;-42
2021/04/29 05:47:41;;;;;;;5.53;4.32;;;14.20;66.80;;;;;;5096524;28;20055;-41
2021/04/29 05:50:08;;;;;;;4.88;4.18;;;14.20;66.80;;;;;;5096591;28;20052;-43
2021/04/29 05:52:35;;;;;;;4.50;3.90;;;14.20;66.80;;;;;;5096410;28;20109;-47
2021/04/29 05:55:00;;;;;;;5.20;4.03;;;14.20;66.80;;;;;;5096528;28;20040;-39
2021/04/29 05:57:26;;;;;;;4.93;4.00;;;14.20;66.80;;;;;;5095740;28;20381;-40
2021/04/29 05:59:52;;;;;;;4.22;3.78;;;14.20;66.90;;;;;;5096272;28;20119;-45
2021/04/29 06:02:18;;;;;;;5.15;4.10;;;14.20;66.90;;;;;;5096346;28;20044;-41
2021/04/29 06:04:43;;;;;;;4.75;3.83;;;14.20;66.90;;;;;;5096312;28;20050;-42
2021/04/29 06:07:10;;;;;;;4.78;3.97;;;14.10;66.80;;;;;;5095849;28;20047;-43
2021/04/29 06:09:36;;;;;;;4.43;3.80;;;14.20;66.90;;;;;;5096280;28;20048;-40
2021/04/29 06:12:02;;;;;;;5.60;4.22;;;14.20;66.90;;;;;;5095598;28;20473;-39
2021/04/29 06:14:28;;;;;;;6.25;4.00;;;14.00;66.80;;;;;;5095614;28;20129;-39
2021/04/29 06:16:54;;;;;;;6.18;4.45;;;14.20;66.90;;;;;;5095398;28;20105;-42
2021/04/29 06:19:19;;;;;;;4.50;3.95;;;14.20;66.90;;;;;;5096239;28;20044;-43
2021/04/29 06:21:46;;;;;;;5.50;3.95;;;14.20;66.90;;;;;;5096160;28;20516;-41
2021/04/29 06:24:12;;;;;;;5.38;3.80;;;14.20;66.90;;;;;;5095832;28;20048;-40
2021/04/29 06:26:38;;;;;;;5.70;4.30;;;14.20;66.90;;;;;;5095717;28;20157;-41
2021/04/29 06:29:03;;;;;;;5.93;3.83;;;14.20;67.00;;;;;;5095167;28;20130;-38
2021/04/29 06:31:29;;;;;;;5.90;4.28;;;14.20;66.90;;;;;;5095375;28;20048;-42
2021/04/29 06:33:55;;;;;;;6.03;3.58;;;14.20;67.00;;;;;;5095750;28;20055;-41
2021/04/29 06:36:20;;;;;;;4.78;3.88;;;14.20;67.00;;;;;;5095747;28;20063;-41
2021/04/29 06:38:46;;;;;;;6.15;4.13;;;14.20;67.00;;;;;;5095206;28;20472;-40
2021/04/29 06:41:12;;;;;;;5.70;4.20;;;14.20;66.90;;;;;;5095140;28;20105;-43
2021/04/29 06:43:38;;;;;;;6.38;4.47;;;14.20;66.90;;;;;;5095475;28;20040;-39
2021/04/29 06:46:03;;;;;;;6.45;3.92;;;14.20;67.00;;;;;;5095367;28;20127;-39
2021/04/29 06:48:30;;;;;;;5.85;4.65;;;14.20;67.00;;;;;;5095138;28;20040;-37
2021/04/29 06:50:55;;;;;;;5.28;4.13;;;14.20;67.00;;;;;;5092800;28;20051;-39
2021/04/29 06:53:21;;;;;;;4.53;3.95;;;14.20;67.00;;;;;;5095151;28;20066;-39
2021/04/29 06:55:48;;;;;;;6.78;4.40;;;14.20;67.00;;;;;;5095314;28;20047;-39
2021/04/29 06:58:14;;;;;;;5.15;4.50;;;14.20;67.00;;;;;;5093617;28;20052;-39
2021/04/29 07:00:40;;;;;;;5.45;4.25;;;14.20;67.00;;;;;;5097423;28;20052;-39
2021/04/29 07:03:05;;;;;;;7.07;4.88;;;14.20;67.00;;;;;;5115446;28;20419;-38
2021/04/29 07:05:31;;;;;;;6.97;4.35;;;14.20;67.00;;;;;;5105521;28;20123;-38
2021/04/29 07:07:57;;;;;;;5.65;4.53;;;14.20;67.00;;;;;;5095251;28;20052;-37
2021/04/29 07:10:24;;;;;;;5.65;4.30;;;14.20;67.00;;;;;;5094815;28;20441;-42
2021/04/29 07:12:50;;;;;;;5.90;4.18;;;14.20;67.00;;;;;;5094839;28;20051;-43
2021/04/29 07:15:16;;;;;;;6.38;4.00;;;14.20;67.00;;;;;;5094582;28;20040;-38
2021/04/29 07:17:42;;;;;;;6.07;4.10;;;14.20;67.00;;;;;;5104270;28;20173;-44
2021/04/29 07:20:09;;;;;;;7.38;4.22;;;14.20;67.00;;;;;;5115231;28;20076;-41
2021/04/29 07:22:35;;;;;;;5.43;4.78;;;14.20;67.00;;;;;;5115214;28;20043;-41
2021/04/29 07:25:01;;;;;;;6.65;4.63;;;14.20;67.00;;;;;;5115315;28;20051;-41
2021/04/29 07:27:27;;;;;;;6.45;4.68;;;14.20;67.00;;;;;;5114951;28;20050;-41
2021/04/29 07:29:53;;;;;;;6.82;4.22;;;14.10;67.00;;;;;;5114814;28;20047;-39
2021/04/29 07:32:18;;;;;;;6.20;4.95;;;14.20;67.00;;;;;;5114455;28;20040;-38
2021/04/29 07:34:44;;;;;;;6.32;4.85;;;14.20;67.00;;;;;;5115136;28;20682;-39
2021/04/29 07:37:10;;;;;;;5.78;4.38;;;14.20;67.00;;;;;;5114881;28;20507;-39
2021/04/29 07:39:36;;;;;;;6.03;4.85;;;14.20;67.10;;;;;;5114720;28;20048;-35
2021/04/29 07:42:02;;;;;;;5.50;4.28;;;14.20;67.00;;;;;;5113660;28;20089;-40
2021/04/29 07:44:28;;;;;;;5.53;4.35;;;14.20;67.00;;;;;;5114724;28;20051;-39
2021/04/29 07:46:54;;;;;;;5.55;4.22;;;14.20;67.00;;;;;;5114033;28;20061;-40
2021/04/29 07:49:20;;;;;;;6.32;4.38;;;14.20;67.00;;;;;;5114304;28;20051;-40
2021/04/29 07:51:46;;;;;;;6.32;4.63;;;14.20;67.00;;;;;;5114383;28;20055;-39
2021/04/29 07:54:14;;;;;;;5.07;4.50;;;14.20;67.00;;;;;;5104469;28;20054;-44
2021/04/29 07:56:41;;;;;;;6.65;4.30;;;14.20;67.00;;;;;;5094091;28;20048;-43
2021/04/29 07:59:07;;;;;;;4.85;4.32;;;14.20;67.10;;;;;;5093989;28;20492;-39
2021/04/29 08:01:34;;;;;;;4.40;4.00;;;14.20;67.10;;;;;;5093884;28;20052;-43
2021/04/29 08:04:01;;;;;;;6.22;4.97;;;14.20;67.70;;;;;;5093897;28;20056;-47
2021/04/29 08:06:28;;;;;;;4.50;4.07;;;14.30;67.10;;;;;;5094006;28;20074;-45
2021/04/29 08:08:54;;;;;;;6.20;4.35;;;14.20;67.10;;;;;;5093824;28;20043;-42
2021/04/29 08:11:20;;;;;;;5.60;3.97;;;14.20;67.10;;;;;;5093802;28;20081;-41
2021/04/29 08:13:46;;;;;;;4.63;3.97;;;14.20;67.10;;;;;;5093840;28;20048;-45
2021/04/29 08:16:11;;;;;;;5.35;4.28;;;14.20;67.10;;;;;;5093745;28;20393;-45
2021/04/29 08:18:37;;;;;;;4.55;4.15;;;14.20;67.10;;;;;;5093101;28;20044;-42
2021/04/29 08:21:05;;;;;;;4.43;4.00;;;14.20;67.10;;;;;;5093867;28;20048;-43
2021/04/29 08:23:30;;;;;;;5.78;4.63;;;14.20;67.10;;;;;;5093730;28;20131;-46
2021/04/29 08:25:57;;;;;;;5.25;4.35;;;14.20;67.10;;;;;;5093566;28;20129;-42
2021/04/29 08:28:23;;;;;;;5.25;4.18;;;14.10;67.10;;;;;;5093532;28;20047;-48
2021/04/29 08:30:49;;;;;;;4.70;3.97;;;14.20;67.10;;;;;;5093366;28;20052;-43
2021/04/29 08:33:15;;;;;;;5.38;4.50;;;14.20;67.10;;;;;;5093245;28;20055;-43
2021/04/29 08:35:40;;;;;;;6.97;4.47;;;14.20;67.10;;;;;;5075060;28;20067;-42
2021/04/29 08:38:06;;;;;;;4.95;3.97;;;14.30;67.20;;;;;;5093131;28;20048;-46
2021/04/29 08:40:32;;;;;;;5.88;3.78;;;14.20;67.10;;;;;;5093362;28;20040;-45
2021/04/29 08:42:58;;;;;;;5.22;3.92;;;14.20;67.10;;;;;;5093224;28;20417;-43
2021/04/29 08:45:24;;;;;;;5.65;4.18;;;14.20;67.10;;;;;;5093333;28;20048;-43
2021/04/29 08:47:53;;;;;;;5.57;4.55;;;14.20;67.20;;;;;;5093150;28;20040;-48
2021/04/29 08:50:20;;;;;;;6.75;4.47;;;14.20;67.10;;;;;;5093254;28;20051;-43
2021/04/29 08:52:46;;;;;;;5.68;4.47;;;14.20;67.10;;;;;;5093050;28;20131;-41
2021/04/29 08:55:26;;;;;;;5.65;4.18;;;14.20;67.20;;;;;;5111204;28;20047;-44
2021/04/29 08:57:52;;;;;;;7.70;5.05;;;14.30;67.30;;;;;;5113331;28;20054;-44
2021/04/29 09:00:20;;;;;;;5.18;4.05;;;14.20;67.20;;;;;;5113411;28;20055;-47
2021/04/29 09:02:46;;;;;;;5.20;4.20;;;14.20;67.20;;;;;;5113540;28;20051;-45
2021/04/29 09:05:20;;;;;;;5.93;4.18;;;14.20;67.20;;;;;;5112811;28;20509;-45
2021/04/29 09:08:01;;;;;;;4.50;3.95;;;14.20;67.20;;;;;;5113401;28;20063;-42
2021/04/29 09:10:39;;;;;;;4.72;3.53;;;14.20;67.20;;;;;;5113491;28;20044;-42
2021/04/29 09:13:19;;;;;;;5.40;4.25;;;14.20;67.20;;;;;;5113243;28;20426;-44
2021/04/29 09:15:45;;;;;;;5.38;3.88;;;14.20;67.20;;;;;;5113324;28;20043;-43
2021/04/29 09:18:13;;;;;;;5.95;4.40;;;14.20;67.20;;;;;;5113082;28;20078;-46
2021/04/29 09:20:54;;;;;;;4.95;3.80;;;14.20;67.20;;;;;;5112785;28;20491;-41
2021/04/29 09:23:25;;;;;;;5.30;4.22;;;14.20;67.20;;;;;;5113154;28;20043;-45
2021/04/29 09:26:04;;;;;;;5.72;3.92;;;14.30;67.30;;;;;;5112920;28;20062;-44
2021/04/29 09:28:38;;;;;;;5.93;4.35;;;14.20;67.20;;;;;;5111390;28;20044;-42
2021/04/29 09:31:11;;;;;;;6.40;4.40;;;14.20;67.20;;;;;;5113379;28;20052;-42
2021/04/29 09:33:40;;;;;;;5.03;4.00;;;14.20;67.20;;;;;;5112930;28;20044;-44
2021/04/29 09:36:07;;;;;;;4.50;3.90;;;14.20;67.20;;;;;;5111573;28;20059;-43
2021/04/29 09:38:38;;;;;;;4.95;4.32;;;14.20;67.20;;;;;;5112808;28;20047;-43
2021/04/29 09:41:08;;;;;;;4.97;3.88;;;14.20;67.20;;;;;;5112990;28;20043;-44
2021/04/29 09:43:34;;;;;;;4.72;3.85;;;14.30;67.30;;;;;;5112981;28;20556;-42
2021/04/29 09:46:02;;;;;;;4.30;3.90;;;14.20;67.20;;;;;;5112856;28;20044;-41
2021/04/29 09:48:36;;;;;;;5.85;3.85;;;14.20;67.20;;;;;;5113064;28;20147;-43
2021/04/29 09:51:04;;;;;;;5.38;3.47;;;14.20;67.20;;;;;;5112534;28;20047;-43
2021/04/29 09:53:48;;;;;;;7.47;4.20;;;14.20;67.20;;;;;;5108949;28;20101;-45
2021/04/29 09:56:14;;;;;;;5.93;4.50;;;14.20;67.30;;;;;;5092670;28;20052;-44
2021/04/29 09:58:47;;;;;;;5.43;4.18;;;14.20;67.30;;;;;;5092390;28;20484;-43
2021/04/29 10:01:14;;;;;;;5.15;3.97;;;14.20;67.30;;;;;;5092280;28;20117;-43
2021/04/29 10:03:41;;;;;;;5.72;4.03;;;14.30;67.30;;;;;;5092378;28;20052;-41
2021/04/29 10:06:10;;;;;;;5.53;3.75;;;14.20;67.30;;;;;;5095813;28;20522;-43
2021/04/29 10:08:37;;;;;;;4.53;3.58;;;14.30;67.30;;;;;;5096188;28;20396;-44
2021/04/29 10:11:04;;;;;;;5.07;3.88;;;14.20;67.30;;;;;;5096212;28;20040;-42
2021/04/29 10:13:37;;;;;;;4.22;3.75;;;14.20;67.90;;;;;;5096050;28;20056;-42
2021/04/29 10:16:03;;;;;;;4.82;4.03;;;14.20;67.30;;;;;;5095719;28;20512;-41
2021/04/29 10:18:29;;;;;;;5.25;3.80;;;14.20;67.30;;;;;;5095743;28;20040;-42
2021/04/29 10:21:00;;;;;;;6.03;4.38;;;14.20;67.30;;;;;;5095726;28;20055;-41
2021/04/29 10:23:26;;;;;;;4.65;3.75;;;14.20;67.30;;;;;;5095952;28;20048;-44
2021/04/29 10:25:57;;;;;;;5.18;3.85;;;14.20;67.30;;;;;;5095785;28;20092;-41
2021/04/29 10:28:31;;;;;;;5.22;3.80;;;14.20;67.30;;;;;;5095810;28;20047;-40
2021/04/29 10:30:57;;;;;;;5.65;4.35;;;14.20;67.30;;;;;;5095682;28;20083;-41
2021/04/29 10:33:23;;;;;;;4.07;3.67;;;14.20;67.30;;;;;;5095972;28;20080;-44
2021/04/29 10:35:57;;;;;;;4.93;4.05;;;14.20;67.30;;;;;;5095886;28;20093;-39
2021/04/29 10:38:29;;;;;;;4.43;3.35;;;14.20;67.30;;;;;;5095255;28;20040;-41
2021/04/29 10:40:57;;;;;;;5.55;4.57;;;14.20;67.30;;;;;;5095557;28;20052;-43
2021/04/29 10:43:35;;;;;;;4.82;3.92;;;14.20;67.40;;;;;;5095385;28;20132;-41
2021/04/29 10:46:04;;;;;;;5.30;3.40;;;14.20;67.40;;;;;;5095645;28;20063;-38
2021/04/29 10:48:49;;;;;;;5.18;3.65;;;14.20;67.30;;;;;;5095308;28;20484;-41
2021/04/29 10:51:15;;;;;;;5.35;3.92;;;14.20;67.40;;;;;;5095460;28;20067;-41
2021/04/29 10:53:41;;;;;;;4.68;3.60;;;14.20;67.40;;;;;;5099651;28;20047;-40
2021/04/29 10:56:09;;;;;;;4.32;3.38;;;14.20;67.40;;;;;;5115244;28;20465;-43
2021/04/29 10:58:35;;;;;;;4.55;3.95;;;14.20;67.40;;;;;;5096356;28;20051;-39
2021/04/29 11:01:05;;;;;;;5.88;3.97;;;14.20;67.40;;;;;;5086394;28;20044;-40
2021/04/29 11:03:36;;;;;;;5.00;4.03;;;14.20;67.40;;;;;;5094511;28;20048;-39
2021/04/29 11:06:19;;;;;;;5.70;3.70;;;14.20;67.40;;;;;;5094306;28;20052;-41
2021/04/29 11:08:47;;;;;;;4.40;3.28;;;14.20;67.40;;;;;;5093956;28;20145;-40
2021/04/29 11:11:19;;;;;;;3.83;3.40;;;14.20;67.40;;;;;;5094181;28;20089;-40
2021/04/29 11:14:02;;;;;;;6.90;4.00;;;14.30;67.50;;;;;;5093436;28;20122;-39
2021/04/29 11:16:29;;;;;;;3.53;3.22;;;14.30;67.50;;;;;;5102754;28;20055;-41
2021/04/29 11:18:55;;;;;;;4.88;3.33;;;14.20;67.40;;;;;;5093874;28;20054;-44
2021/04/29 11:21:26;;;;;;;5.65;4.25;;;14.20;67.40;;;;;;5094015;28;20135;-41
2021/04/29 11:23:52;;;;;;;4.95;3.95;;;14.30;67.50;;;;;;5093408;28;20063;-43
2021/04/29 11:26:20;;;;;;;5.20;3.72;;;14.20;67.40;;;;;;5093947;28;20135;-39
2021/04/29 11:28:47;;;;;;;4.45;3.63;;;14.20;67.40;;;;;;5093563;28;20076;-39
2021/04/29 11:31:17;;;;;;;5.30;3.58;;;14.20;67.40;;;;;;5093951;28;20050;-43
2021/04/29 11:33:46;;;;;;;4.22;3.70;;;14.20;67.40;;;;;;5093734;28;20044;-43
2021/04/29 11:36:20;;;;;;;4.18;3.25;;;14.20;67.40;;;;;;5093695;28;20127;-41
2021/04/29 11:39:01;;;;;;;4.45;3.58;;;14.20;67.50;;;;;;5093122;28;20052;-40
2021/04/29 11:41:28;;;;;;;4.20;3.58;;;14.30;67.50;;;;;;5093698;28;20051;-48
2021/04/29 11:44:02;;;;;;;4.82;3.30;;;14.30;67.50;;;;;;5093398;28;20151;-40
2021/04/29 11:46:30;;;;;;;4.80;3.60;;;14.20;67.40;;;;;;5093696;28;20044;-41
2021/04/29 11:49:02;;;;;;;5.00;3.40;;;14.20;67.50;;;;;;5093363;28;20044;-41
2021/04/29 11:51:31;;;;;;;4.07;3.20;;;14.20;67.50;;;;;;5093508;28;20613;-38
2021/04/29 11:54:07;;;;;;;3.90;2.92;;;14.20;67.50;;;;;;5092860;28;20044;-40
2021/04/29 11:56:40;;;;;;;5.25;3.55;;;14.20;67.50;;;;;;5093538;28;20048;-48
2021/04/29 11:59:08;;;;;;;4.22;3.80;;;14.30;67.60;;;;;;5093066;28;20458;-38
2021/04/29 12:01:38;;;;;;;4.88;3.22;;;14.30;67.60;;;;;;5093303;28;20044;-42
2021/04/29 12:04:14;;;;;;;4.10;3.00;;;14.30;67.50;;;;;;5093215;28;20044;-50
2021/04/29 12:06:57;;;;;;;4.05;3.40;;;14.30;67.60;;;;;;5093484;28;20973;-41
2021/04/29 12:09:25;;;;;;;3.97;3.33;;;14.20;67.50;;;;;;5093069;28;20048;-48
2021/04/29 12:11:52;;;;;;;4.10;3.00;;;14.20;67.50;;;;;;5092604;28;20040;-44
2021/04/29 12:14:26;;;;;;;4.38;3.47;;;14.20;67.50;;;;;;5093157;28;20503;-42
2021/04/29 12:16:59;;;;;;;4.18;3.08;;;14.20;67.50;;;;;;5093093;28;20052;-40
2021/04/29 12:19:26;;;;;;;3.70;3.38;;;14.30;67.60;;;;;;5092128;28;20048;-43
2021/04/29 12:21:52;;;;;;;3.30;2.85;;;14.20;67.50;;;;;;5092745;28;20048;-46
2021/04/29 12:24:18;;;;;;;2.95;2.65;;;14.20;67.50;;;;;;5092950;28;20047;-47
2021/04/29 12:26:44;;;;;;;4.30;3.63;;;14.30;67.60;;;;;;5092302;28;20040;-40
2021/04/29 12:29:17;;;;;;;3.42;2.85;;;14.20;67.50;;;;;;5093042;28;20051;-42
2021/04/29 12:31:52;;;;;;;3.40;3.10;;;14.20;67.50;;;;;;5092943;28;20073;-40
2021/04/29 12:34:20;;;;;;;6.05;3.40;;;14.30;67.60;;;;;;5093405;28;20131;-46
2021/04/29 12:37:00;;;;;;;4.32;2.90;;;14.30;67.60;;;;;;5093275;28;20225;-42
2021/04/29 12:39:32;;;;;;;3.20;2.88;;;14.30;68.30;;;;;;5093585;28;20056;-47
2021/04/29 12:41:59;;;;;;;4.05;3.15;;;14.20;67.50;;;;;;5093099;28;20048;-44
2021/04/29 12:44:43;;;;;;;4.45;2.90;;;14.30;68.30;;;;;;5093343;28;20051;-43
2021/04/29 12:47:10;;;;;;;3.65;2.90;;;14.30;67.60;;;;;;5093494;28;20051;-44
2021/04/29 12:49:37;;;;;;;3.80;3.03;;;14.20;67.60;;;;;;5092957;28;20048;-41
2021/04/29 12:52:08;;;;;;;3.72;3.03;;;14.20;67.60;;;;;;5093228;28;20060;-40